This is the latest recevied weather packets stored in our database for station/object KQ4OSL. If no packets are shown the sender has not sent any weather packets the latest 10 day(s).
| Time | Temp. | Humidity | Pressure | Rain* | Wind** | Luminosity | Snow |
|---|---|---|---|---|---|---|---|
| 1788025844 | 28.89° C | 79% | 1023.1 hPa | 0 mm | - | 754 W/m² | - |
| 1788025544 | 28.89° C | 78% | 1023.2 hPa | 0 mm | - | 740 W/m² | - |
| 1788025239 | 28.89° C | 79% | 1023.2 hPa | 0 mm | - | 735 W/m² | - |
| 1788024934 | 27.78° C | 84% | 1023.3 hPa | 0 mm | - | 715 W/m² | - |
| 1788024630 | 27.22° C | 85% | 1023.4 hPa | 0 mm | - | 138 W/m² | - |
| 1788024325 | 27.78° C | 83% | 1023.2 hPa | 0 mm | - | 703 W/m² | - |
| 1788024021 | 27.22° C | 86% | 1023.6 hPa | 0 mm | - | 435 W/m² | - |
| 1788023720 | 26.67° C | 87% | 1023.7 hPa | 0 mm | - | 359 W/m² | - |
| 1788023416 | 26.67° C | 87% | 1023.3 hPa | 0 mm | - | 287 W/m² | - |
| 1788023116 | 26.67° C | 86% | 1023.6 hPa | 0 mm | - | 282 W/m² | - |
| 1788022815 | 26.67° C | 89% | 1023.6 hPa | 0 mm | - | 215 W/m² | - |
| 1788022513 | 26.67° C | 87% | 1023.6 hPa | 0 mm | - | 221 W/m² | - |
| 1788022208 | 26.11° C | 92% | 1023.6 hPa | 0 mm | - | 309 W/m² | - |
| 1788021906 | 26.11° C | 89% | 1023.6 hPa | 0 mm | - | 148 W/m² | - |
| 1788021601 | 26.11° C | 89% | 1023.5 hPa | 0 mm | - | 295 W/m² | - |
| 1788021299 | 26.11° C | 89% | 1023.4 hPa | 0 mm | - | 322 W/m² | - |
| 1788020994 | 25.56° C | 92% | 1023.4 hPa | 0 mm | - | 298 W/m² | - |
| 1788020690 | 25.56° C | 91% | 1023.4 hPa | 0 mm | - | 128 W/m² | - |
| 1788020389 | 25.56° C | 91% | 1023.4 hPa | 0 mm | - | 262 W/m² | - |
| 1788020086 | 25.56° C | 92% | 1023.4 hPa | 0 mm | - | 233 W/m² | - |
| 1788019781 | 25° C | 94% | 1023.4 hPa | 0 mm | - | 149 W/m² | - |
| 1788019480 | 25° C | 94% | 1023.2 hPa | 0 mm | - | 127 W/m² | - |
| 1788019178 | 25° C | 93% | 1023.2 hPa | 0 mm | - | 178 W/m² | - |
| 1788018873 | 25° C | 92% | 1023.3 hPa | 0 mm | - | 220 W/m² | - |
| 1788018568 | 25° C | 93% | 1023.3 hPa | 0 mm | - | 202 W/m² | - |
* Rain latest hour (hover to see other rain measurements)
** Current wind speed in m/s (hover to see current wind gust speed)